This is the latest recevied weather packets stored in our database for station/object NE1CU. If no packets are shown the sender has not sent any weather packets the latest 1 day(s).
| Time | Temp. | Humidity | Pressure | Rain* | Wind** | Luminosity | Snow |
|---|---|---|---|---|---|---|---|
| 1777981088 | 13.33° C | 87% | 1011.2 hPa | 0 mm | 0 m/s | 135 W/m² | - |
| 1777980784 | 12.78° C | 89% | 1011.5 hPa | 0 mm | 0.45 m/s, 139° | 98 W/m² | - |
| 1777980480 | 12.22° C | 92% | 1011.5 hPa | 0 mm | 0.45 m/s, 156° | 70 W/m² | - |
| 1777980178 | 11.67° C | 94% | 1011.3 hPa | 0 mm | 0 m/s | 56 W/m² | - |
| 1777979879 | 11.67° C | 95% | 1011.5 hPa | 0 mm | 0.45 m/s, 312° | 55 W/m² | - |
| 1777979574 | 11.11° C | 95% | 1011.3 hPa | 0 mm | 0 m/s | 49 W/m² | - |
| 1777979270 | 11.11° C | 95% | 1011.3 hPa | 0 mm | 0 m/s | 45 W/m² | - |
| 1777978968 | 11.11° C | 95% | 1011.2 hPa | 0 mm | 0 m/s | 47 W/m² | - |
| 1777978664 | 10.56° C | 95% | 1011.1 hPa | 0 mm | 0 m/s | 50 W/m² | - |
| 1777978360 | 10° C | 95% | 1010.9 hPa | 0 mm | 0 m/s | 52 W/m² | - |
| 1777978057 | 10° C | 95% | 1010.8 hPa | 0 mm | 0 m/s | 60 W/m² | - |
| 1777977754 | 8.89° C | 95% | 1010.8 hPa | 0 mm | 0 m/s | 65 W/m² | - |
| 1777977450 | 8.89° C | 95% | 1010.5 hPa | 0 mm | 0 m/s | 52 W/m² | - |
| 1777977149 | 8.33° C | 95% | 1010.6 hPa | 0 mm | 0 m/s | 31 W/m² | - |
| 1777976845 | 8.33° C | 95% | 1010.7 hPa | 0 mm | 0 m/s | 25 W/m² | - |
| 1777976544 | 8.33° C | 95% | 1010.5 hPa | 0 mm | 0 m/s | 21 W/m² | - |
| 1777976242 | 8.33° C | 95% | 1010.4 hPa | 0 mm | 0 m/s | 18 W/m² | - |
| 1777975938 | 8.33° C | 95% | 1010.4 hPa | 0 mm | 0 m/s | 15 W/m² | - |
| 1777975635 | 8.33° C | 95% | 1010.3 hPa | 0 mm | 0 m/s | 12 W/m² | - |
| 1777975332 | 8.33° C | 95% | 1010.3 hPa | 0 mm | 0 m/s | 9 W/m² | - |
| 1777975027 | 8.33° C | 95% | 1010.3 hPa | 0 mm | 0 m/s | 7 W/m² | - |
| 1777974725 | 8.33° C | 94% | 1010.3 hPa | 0 mm | 0 m/s | 4 W/m² | - |
| 1777974421 | 8.33° C | 94% | 1010.5 hPa | 0 mm | 0 m/s | 3 W/m² | - |
| 1777974117 | 7.78° C | 94% | 1010.3 hPa | 0 mm | 0 m/s | 2 W/m² | - |
| 1777973813 | 7.78° C | 94% | 1010.1 hPa | 0 mm | 0 m/s | 1 W/m² | - |
* Rain latest hour (hover to see other rain measurements)
** Current wind speed in m/s (hover to see current wind gust speed)